createdAt,value
2023-01-23T16:01:28.969Z,7.00
2023-01-23T16:04:00.094Z,7.00
2023-01-23T16:06:28.098Z,7.00
2023-01-23T16:09:05.264Z,7.00
2023-01-23T16:11:35.425Z,6.90
2023-01-23T16:14:03.620Z,6.90
2023-01-23T16:16:31.332Z,6.90
2023-01-23T16:18:58.881Z,7.00
2023-01-23T16:21:30.587Z,7.00
2023-01-23T16:23:59.177Z,6.90
2023-01-23T16:26:28.551Z,6.90
2023-01-23T16:29:08.686Z,6.90
2023-01-23T16:31:40.922Z,6.90
2023-01-23T16:34:08.520Z,7.00
2023-01-23T16:36:36.209Z,6.90
2023-01-23T16:39:05.178Z,6.90
2023-01-23T16:41:33.581Z,7.00
2023-01-23T16:44:01.093Z,6.90
2023-01-23T16:46:28.656Z,6.90
2023-01-23T16:48:57.205Z,6.90
2023-01-23T16:51:25.748Z,6.90
2023-01-23T16:53:57.227Z,6.90
2023-01-23T16:56:45.988Z,6.90
2023-01-23T16:59:20.461Z,6.90
2023-01-23T17:01:50.437Z,6.90
2023-01-23T17:04:20.730Z,6.80
2023-01-23T17:06:48.944Z,6.80
2023-01-23T17:09:17.712Z,6.80
2023-01-23T17:11:53.215Z,6.70
2023-01-23T17:14:31.132Z,6.70
2023-01-23T17:17:06.350Z,6.70
2023-01-23T17:19:39.332Z,6.60
2023-01-23T17:22:13.213Z,6.60
2023-01-23T17:24:40.663Z,6.50
2023-01-23T17:27:08.215Z,6.50
2023-01-23T17:29:35.704Z,6.50
2023-01-23T17:32:04.093Z,6.50
2023-01-23T17:34:45.207Z,6.50
2023-01-23T17:37:23.821Z,6.50
2023-01-23T17:39:51.580Z,6.50
2023-01-23T17:42:19.237Z,6.50
2023-01-23T17:44:46.748Z,6.50
2023-01-23T17:47:15.875Z,6.50
2023-01-23T17:50:03.278Z,6.50
2023-01-23T17:52:31.299Z,6.50
2023-01-23T17:54:58.813Z,6.50
2023-01-23T17:57:26.301Z,6.50
2023-01-23T17:59:56.307Z,6.50
2023-01-23T18:02:27.752Z,6.50
2023-01-23T18:04:56.128Z,6.50
2023-01-23T18:07:27.194Z,6.40
2023-01-23T18:09:56.505Z,6.50
2023-01-23T18:12:43.395Z,6.50
2023-01-23T18:15:10.954Z,6.50
2023-01-23T18:17:50.137Z,6.50
2023-01-23T18:20:24.196Z,6.50
2023-01-23T18:22:52.605Z,6.50
2023-01-23T18:25:22.155Z,6.50
2023-01-23T18:27:54.541Z,6.50
2023-01-23T18:30:38.116Z,6.50
2023-01-23T18:33:20.638Z,6.50
2023-01-23T18:36:39.020Z,6.50
2023-01-23T18:39:38.874Z,6.50
2023-01-23T18:42:35.731Z,6.50
2023-01-23T18:45:06.779Z,6.50
2023-01-23T18:47:34.522Z,6.50
2023-01-23T18:50:02.313Z,6.50
2023-01-23T18:53:01.588Z,6.50
2023-01-23T18:55:48.177Z,6.50
2023-01-23T18:58:40.571Z,6.50
2023-01-23T19:01:25.574Z,6.50
2023-01-23T19:03:55.989Z,6.50
2023-01-23T19:06:26.218Z,6.50
2023-01-23T19:08:59.538Z,6.50
2023-01-23T19:12:00.731Z,6.50
2023-01-23T19:14:57.421Z,6.50
2023-01-23T19:17:45.120Z,6.50
2023-01-23T19:20:20.673Z,6.50
2023-01-23T19:23:16.588Z,6.50
2023-01-23T19:25:48.206Z,6.50
2023-01-23T19:28:16.733Z,6.50
2023-01-23T19:30:44.799Z,6.50
2023-01-23T19:33:19.048Z,6.50
2023-01-23T19:35:50.374Z,6.50
2023-01-23T19:38:18.176Z,6.50
2023-01-23T19:40:47.306Z,6.50
2023-01-23T19:43:16.992Z,6.50
2023-01-23T19:45:48.258Z,6.40
2023-01-23T19:48:15.835Z,6.50
2023-01-23T19:50:44.370Z,6.50
2023-01-23T19:53:17.564Z,6.50
2023-01-23T19:55:45.336Z,6.50
2023-01-23T19:58:12.997Z,6.50
2023-01-23T20:00:40.924Z,6.50
2023-01-23T20:03:11.733Z,6.50
2023-01-23T20:05:39.421Z,6.50
2023-01-23T20:08:09.900Z,6.40
2023-01-23T20:10:37.763Z,6.40
2023-01-23T20:13:05.354Z,6.40
2023-01-23T20:15:34.145Z,6.40
2023-01-23T20:18:01.740Z,6.40
2023-01-23T20:20:29.291Z,6.40
2023-01-23T20:22:56.750Z,6.40
2023-01-23T20:25:24.424Z,6.40
2023-01-23T20:27:54.019Z,6.40
2023-01-23T20:30:24.407Z,6.40
2023-01-23T20:32:52.323Z,6.40
2023-01-23T20:35:19.743Z,6.40
2023-01-23T20:37:48.826Z,6.40
2023-01-23T20:40:16.948Z,6.40
2023-01-23T20:42:44.929Z,6.40
2023-01-23T20:45:12.537Z,6.40
2023-01-23T20:47:41.810Z,6.30
2023-01-23T20:50:10.059Z,6.40
2023-01-23T20:52:56.004Z,6.40
2023-01-23T20:55:23.950Z,6.40
2023-01-23T20:58:09.994Z,6.40
2023-01-23T21:00:37.776Z,6.40
2023-01-23T21:03:05.231Z,6.40
2023-01-23T21:05:32.907Z,6.40
2023-01-23T21:08:00.470Z,6.40
2023-01-23T21:10:28.183Z,6.40
2023-01-23T21:12:55.750Z,6.40
2023-01-23T21:15:23.629Z,6.40
2023-01-23T21:17:51.388Z,6.40
2023-01-23T21:20:19.090Z,6.40
2023-01-23T21:22:46.639Z,6.40
2023-01-23T21:25:14.238Z,6.40
2023-01-23T21:27:41.756Z,6.40
2023-01-23T21:30:10.052Z,6.40
2023-01-23T21:32:37.516Z,6.40
2023-01-23T21:35:05.454Z,6.40
2023-01-23T21:37:33.290Z,6.40
2023-01-23T21:40:00.774Z,6.40
2023-01-23T21:42:28.476Z,6.40
2023-01-23T21:44:57.788Z,6.40
2023-01-23T21:47:25.414Z,6.40
2023-01-23T21:49:52.882Z,6.40
2023-01-23T21:52:20.590Z,6.40
2023-01-23T21:54:48.093Z,6.40
2023-01-23T21:57:15.601Z,6.40
2023-01-23T22:00:03.102Z,6.40
2023-01-23T22:02:39.533Z,6.40
2023-01-23T22:05:07.563Z,6.40
2023-01-23T22:07:35.078Z,6.40
2023-01-23T22:10:02.506Z,6.40
2023-01-23T22:12:30.059Z,6.40
2023-01-23T22:14:57.535Z,6.40
2023-01-23T22:17:25.113Z,6.40
2023-01-23T22:19:52.669Z,6.40
2023-01-23T22:22:21.004Z,6.40
2023-01-23T22:24:48.626Z,6.40
2023-01-23T22:27:16.232Z,6.40
2023-01-23T22:29:43.950Z,6.40
2023-01-23T22:32:11.628Z,6.40
2023-01-23T22:34:39.246Z,6.40
2023-01-23T22:37:06.828Z,6.40
2023-01-23T22:39:34.383Z,6.40
2023-01-23T22:42:04.770Z,6.40
2023-01-23T22:44:32.511Z,6.40
2023-01-23T22:47:00.111Z,6.40
2023-01-23T22:49:27.740Z,6.40
2023-01-23T22:51:55.241Z,6.40
2023-01-23T22:54:22.803Z,6.40
2023-01-23T22:56:50.344Z,6.40
2023-01-23T22:59:17.799Z,6.40
2023-01-23T23:01:45.370Z,6.50
2023-01-23T23:04:13.025Z,6.50
2023-01-23T23:06:40.608Z,6.50
2023-01-23T23:09:08.201Z,6.50
2023-01-23T23:11:37.362Z,6.50
2023-01-23T23:14:05.017Z,6.40
2023-01-23T23:16:33.282Z,6.40
2023-01-23T23:19:03.316Z,6.50
2023-01-23T23:21:34.233Z,6.50
2023-01-23T23:24:02.391Z,6.50
2023-01-23T23:26:31.642Z,6.50
2023-01-23T23:29:00.669Z,6.50
2023-01-23T23:31:28.825Z,6.50
2023-01-23T23:33:56.675Z,6.50
2023-01-23T23:36:24.445Z,6.50
2023-01-23T23:38:51.927Z,6.50
2023-01-23T23:41:19.834Z,6.50
2023-01-23T23:43:47.361Z,6.50
2023-01-23T23:46:15.758Z,6.50
2023-01-23T23:48:44.065Z,6.50
2023-01-23T23:51:13.930Z,6.50
2023-01-23T23:53:41.811Z,6.50
2023-01-23T23:56:11.067Z,6.50
2023-01-23T23:58:39.028Z,6.50
